Decoded Metar for VVPQ (PHUQUOC in VIET NAM) (IATA:N/A) | Meteo·Mobile Aviation Weather
aviador You're here:

VVPQ Decoded Metar

PHUQUOC in VIET NAM
Report Time2019-07-23 02:00:00
UTC Time2019-07-23 02:35:35
Flight Rules vfr VFR
Wind270° at 07 kt
W.Decomp.*RWY 26: 6.9 kt HW 1.2 kt RCW
Visibility9999 m
Phenomena:N/A
Clouds:Scattered 015 Hf
Scattered 040 Hf
Expected CloudBase > 1,600 ft AGL from Temp-Dew spread
CeilingNone
Temp30°C (ISA +15)
Dew Point26°C (79% RH)
Heat Index37.4°C
QNH1008 hPa
Density Alt2,356 ft
Elevation23 ft
Report Wrong Elevation
Raw Report
METAR VVPQ 230200Z 27007KT 9999 SCT015 SCT040 30/26 Q1008 NOSIG=

Extra information for VVPQ:More info

Metar Taf Metar & Taf Last 4 Metars F.Rules Stats Wind Profile Meteogram Temp Stats Airport Information Weather charts Add Link Nearby VenuesMetar ALERT Operation Metar Decoded Social comments